Hovedside
METAR-TAF:

METAR-TAF

Lufthavner :

Majuro, Marshalløyene

breddegrad: 07-04N, lengdegrad: 171-17E, høyde over havet: 2 m

Gjeldene værobservasjon

Denne rapporten ble laget for 10 minutter siden, klokken 06:54 UTC
Vind 11 kt fra Nordøst
Temperatur 29°C
Luftfuktighet 79%
Trykk 1008 hPa
Sikt: 24.1 km
Få skyer i en høyde av 1500 ft
Spredte skyer i en høyde av 5000 ft
Brutte skyer i en høyde av 30000 ft

METAR: PKMJ 250654Z 05011KT 15SM FEW015 SCT050 BKN300 29/25 A2977

Tid: 19:04 (07:04 UTC)

Varsel

Denne rapporten ble laget for 1 time og 37 minutter siden, klokken 05:27 UTC
Varsel gyldig fra 25. klokken 06 UTC til 26. klokken 06 UTC
Vind 7 kt fra Øst-nordøst
Sikt: 10 km
Få skyer i en høyde av 1500 ft
Spredte skyer i en høyde av 5000 ft
regnbyger i nærheten

TAF: PKMJ 250527Z 2506/2606 07007KT P6SM VCSH FEW015 SCT050

Værobservasjoner og værvarsel for over 4000 flyplasser (METAR- og TAF-rapporter).

Tilgjengelige stasjoner er representert av de røde og gule prikkene på kartet.

Hold musepekeren over prikken for å se navnet på stasjonen.

Klikk så for å se værobservasjoner og -varsler.

For å forandre kartet kan du klikke på den grønne knappen med svart kryss for å zoome inn, på den grønne knappen med strek for å zoome ut, eller på de grønne pilene for å se tilstøtende kart.


METAR-TAF: